SBI1558 UNNT-UNKL
Flight info
| Callsign | SBI1558 |
|---|---|
| Flight time | N/A |
| Altitude | 35000 |
| Route | OGAT1J OGATI A308 RISPA A366 KESED A309 ROTLI A300 RANET RANE2R |
| Aircraft | B738/M-SDE2E3FGHIJ1RWXY/LB1 |
Departure
| Time | 2026-05-01 14:38 |
|---|---|
| Airport | Novosibirsk Tolmachevo Airport (UNNT) |
Arrival
| Time | N/A |
|---|---|
| Airport | Krasnoyarsk International Airport (UNKL) |
| Time | Latitude | Longitude | Altitude | Speed | Heading |
|---|---|---|---|---|---|
| 2026-05-01 14:12 | 55.01164 | 82.67372 | 371 ft | 0 kts | 171° |
| 2026-05-01 14:30 | 55.01120 | 82.67371 | 371 ft | 2 kts | 211° |
| 2026-05-01 14:30 | 55.01103 | 82.67321 | 371 ft | 8 kts | 254° |
| 2026-05-01 14:30 | 55.01098 | 82.67178 | 371 ft | 16 kts | 269° |
| 2026-05-01 14:31 | 55.01083 | 82.66912 | 372 ft | 9 kts | 286° |
| 2026-05-01 14:31 | 55.01100 | 82.66792 | 372 ft | 12 kts | 268° |
| 2026-05-01 14:31 | 55.01074 | 82.66606 | 372 ft | 20 kts | 247° |
| 2026-05-01 14:31 | 55.01024 | 82.66383 | 372 ft | 18 kts | 251° |
| 2026-05-01 14:32 | 55.00971 | 82.66233 | 372 ft | 16 kts | 248° |
| 2026-05-01 14:32 | 55.00950 | 82.66000 | 372 ft | 23 kts | 263° |
| 2026-05-01 14:32 | 55.00924 | 82.65724 | 372 ft | 23 kts | 261° |
| 2026-05-01 14:32 | 55.00900 | 82.65467 | 372 ft | 24 kts | 261° |
| 2026-05-01 14:33 | 55.00880 | 82.65146 | 372 ft | 20 kts | 263° |
| 2026-05-01 14:33 | 55.00886 | 82.64894 | 372 ft | 24 kts | 283° |
| 2026-05-01 14:33 | 55.00923 | 82.64604 | 372 ft | 22 kts | 283° |
| 2026-05-01 14:33 | 55.00964 | 82.64296 | 373 ft | 30 kts | 282° |
| 2026-05-01 14:34 | 55.01009 | 82.64026 | 373 ft | 4 kts | 322° |
| 2026-05-01 14:34 | 55.01026 | 82.64011 | 373 ft | 0 kts | 343° |
| 2026-05-01 14:36 | 55.01059 | 82.63994 | 374 ft | 9 kts | 344° |
| 2026-05-01 14:37 | 55.01142 | 82.64019 | 374 ft | 17 kts | 52° |
| 2026-05-01 14:37 | 55.01158 | 82.64101 | 374 ft | 0 kts | 78° |
| 2026-05-01 14:37 | 55.01158 | 82.64102 | 374 ft | 1 kts | 78° |
| 2026-05-01 14:38 | 55.01185 | 82.64383 | 372 ft | 64 kts | 81° |
| 2026-05-01 14:38 | 55.01294 | 82.65674 | 372 ft | 148 kts | 83° |
| 2026-05-01 14:38 | 55.01461 | 82.67714 | 872 ft | 181 kts | 82° |
| 2026-05-01 14:38 | 55.01674 | 82.69947 | 1846 ft | 194 kts | 86° |
| 2026-05-01 14:39 | 55.01912 | 82.72305 | 2788 ft | 201 kts | 84° |
| 2026-05-01 14:39 | 55.02151 | 82.74685 | 3655 ft | 204 kts | 84° |
| 2026-05-01 14:39 | 55.02387 | 82.77176 | 4267 ft | 224 kts | 87° |
| 2026-05-01 14:39 | 55.02614 | 82.80038 | 4853 ft | 245 kts | 86° |
| 2026-05-01 14:40 | 55.02869 | 82.83033 | 5777 ft | 254 kts | 85° |
| 2026-05-01 14:40 | 55.02869 | 82.86145 | 6511 ft | 264 kts | 106° |
| 2026-05-01 14:40 | 55.02380 | 82.89308 | 7278 ft | 276 kts | 109° |
| 2026-05-01 14:40 | 55.01852 | 82.92562 | 8185 ft | 283 kts | 109° |
| 2026-05-01 14:41 | 55.01317 | 82.95896 | 9144 ft | 289 kts | 109° |
| 2026-05-01 14:41 | 55.00779 | 82.99311 | 10063 ft | 296 kts | 108° |
| 2026-05-01 14:41 | 55.00223 | 83.02874 | 10587 ft | 317 kts | 108° |
| 2026-05-01 14:41 | 54.99627 | 83.06723 | 11005 ft | 338 kts | 108° |
| 2026-05-01 14:42 | 54.99013 | 83.10726 | 11789 ft | 345 kts | 107° |
| 2026-05-01 14:42 | 54.98391 | 83.14791 | 12677 ft | 350 kts | 107° |
| 2026-05-01 14:42 | 54.97752 | 83.18938 | 13543 ft | 356 kts | 107° |
| 2026-05-01 14:42 | 54.97117 | 83.23144 | 14319 ft | 363 kts | 105° |
| 2026-05-01 14:43 | 54.96704 | 83.27511 | 15110 ft | 369 kts | 100° |
| 2026-05-01 14:43 | 54.96374 | 83.31970 | 15890 ft | 374 kts | 99° |
| 2026-05-01 14:43 | 54.96058 | 83.36492 | 16668 ft | 379 kts | 99° |
| 2026-05-01 14:43 | 54.95737 | 83.41082 | 17441 ft | 384 kts | 99° |
| 2026-05-01 14:44 | 54.95407 | 83.45718 | 18209 ft | 389 kts | 99° |
| 2026-05-01 14:44 | 54.94716 | 83.55133 | 18979 ft | 395 kts | 99° |
| 2026-05-01 14:44 | 54.94357 | 83.59908 | 19490 ft | 400 kts | 99° |
| 2026-05-01 14:45 | 54.93993 | 83.64703 | 20313 ft | 399 kts | 99° |
| 2026-05-01 14:45 | 54.93258 | 83.74298 | 21783 ft | 403 kts | 99° |
| 2026-05-01 14:45 | 54.92881 | 83.79157 | 22418 ft | 407 kts | 99° |
| 2026-05-01 14:46 | 54.92499 | 83.84058 | 23074 ft | 411 kts | 99° |
| 2026-05-01 14:46 | 54.91721 | 83.93972 | 24232 ft | 417 kts | 99° |
| 2026-05-01 14:46 | 54.91324 | 83.98989 | 24720 ft | 421 kts | 99° |
| 2026-05-01 14:47 | 54.90922 | 84.04055 | 25219 ft | 425 kts | 99° |
| 2026-05-01 14:47 | 54.90513 | 84.09163 | 25698 ft | 429 kts | 99° |
| 2026-05-01 14:47 | 54.90100 | 84.14312 | 26175 ft | 432 kts | 99° |
| 2026-05-01 14:48 | 54.89286 | 84.24378 | 28197 ft | 409 kts | 99° |
| 2026-05-01 14:48 | 54.88895 | 84.29186 | 28979 ft | 406 kts | 99° |
| 2026-05-01 14:48 | 54.88077 | 84.39096 | 29796 ft | 417 kts | 99° |
| 2026-05-01 14:49 | 54.87241 | 84.49149 | 30644 ft | 423 kts | 99° |
| 2026-05-01 14:49 | 54.86391 | 84.59297 | 31489 ft | 427 kts | 99° |
| 2026-05-01 14:50 | 54.85818 | 84.66065 | 32007 ft | 429 kts | 99° |
| 2026-05-01 14:50 | 54.85032 | 84.79896 | 33001 ft | 435 kts | 95° |
| 2026-05-01 14:51 | 54.84783 | 84.85215 | 33371 ft | 437 kts | 95° |
| 2026-05-01 14:51 | 54.84247 | 84.95678 | 34058 ft | 441 kts | 95° |
| 2026-05-01 14:52 | 54.83667 | 85.06342 | 34657 ft | 444 kts | 95° |
| 2026-05-01 14:52 | 54.83371 | 85.11753 | 34959 ft | 446 kts | 95° |
| 2026-05-01 14:53 | 54.83128 | 85.27608 | 35029 ft | 434 kts | 72° |
| 2026-05-01 14:53 | 54.84269 | 85.32423 | 35040 ft | 431 kts | 57° |
| 2026-05-01 14:53 | 54.86118 | 85.36553 | 35046 ft | 428 kts | 44° |
| 2026-05-01 14:54 | 54.90272 | 85.43885 | 35044 ft | 430 kts | 42° |
| 2026-05-01 14:54 | 54.94500 | 85.51301 | 35037 ft | 432 kts | 43° |
| 2026-05-01 14:55 | 54.98696 | 85.58819 | 35037 ft | 433 kts | 43° |
| 2026-05-01 14:55 | 55.02901 | 85.66445 | 35055 ft | 435 kts | 43° |
| 2026-05-01 14:56 | 55.07161 | 85.74202 | 35056 ft | 450 kts | 43° |
| 2026-05-01 14:56 | 55.11542 | 85.82204 | 35061 ft | 462 kts | 43° |
| 2026-05-01 14:57 | 55.16029 | 85.90431 | 35058 ft | 472 kts | 43° |
| 2026-05-01 14:57 | 55.22840 | 86.02976 | 35064 ft | 478 kts | 43° |
| 2026-05-01 14:58 | 55.27144 | 86.11865 | 35045 ft | 482 kts | 54° |
| 2026-05-01 14:58 | 55.30111 | 86.22462 | 35066 ft | 485 kts | 64° |
| 2026-05-01 14:59 | 55.32850 | 86.33241 | 33600 ft | 494 kts | 61° |
| 2026-05-01 14:59 | 55.34278 | 86.38810 | 32023 ft | 507 kts | 66° |
| 2026-05-01 14:59 | 55.35269 | 86.44490 | 32928 ft | 469 kts | 70° |
| 2026-05-01 15:00 | 55.37568 | 86.54889 | 34266 ft | 447 kts | 62° |
| 2026-05-01 15:00 | 55.38841 | 86.59819 | 34867 ft | 439 kts | 62° |
| 2026-05-01 15:00 | 55.40122 | 86.64770 | 35031 ft | 438 kts | 62° |
| 2026-05-01 15:01 | 55.41365 | 86.69666 | 35041 ft | 440 kts | 63° |
| 2026-05-01 15:01 | 55.43838 | 86.79718 | 35067 ft | 455 kts | 63° |
| 2026-05-01 15:02 | 55.45913 | 86.88363 | 35067 ft | 466 kts | 64° |
| 2026-05-01 15:02 | 55.48867 | 87.00806 | 35064 ft | 480 kts | 64° |
| 2026-05-01 15:03 | 55.51036 | 87.09985 | 35060 ft | 487 kts | 64° |
| 2026-05-01 15:03 | 55.53644 | 87.21062 | 35054 ft | 490 kts | 64° |
| 2026-05-01 15:04 | 55.56250 | 87.32189 | 35071 ft | 491 kts | 64° |
| 2026-05-01 15:04 | 55.58854 | 87.43353 | 35062 ft | 491 kts | 64° |
| 2026-05-01 15:05 | 55.61446 | 87.54522 | 35067 ft | 491 kts | 64° |
| 2026-05-01 15:05 | 55.64026 | 87.65697 | 35061 ft | 491 kts | 64° |
| 2026-05-01 15:06 | 55.66595 | 87.76883 | 35073 ft | 490 kts | 64° |
| 2026-05-01 15:06 | 55.69154 | 87.88080 | 35072 ft | 491 kts | 64° |
| 2026-05-01 15:07 | 55.71707 | 87.99312 | 35072 ft | 491 kts | 64° |
| 2026-05-01 15:07 | 55.74246 | 88.10542 | 35080 ft | 491 kts | 64° |
| 2026-05-01 15:08 | 55.76778 | 88.21803 | 35078 ft | 491 kts | 64° |
| 2026-05-01 15:08 | 55.79283 | 88.33000 | 35074 ft | 491 kts | 64° |
| 2026-05-01 15:09 | 55.81791 | 88.44275 | 35084 ft | 491 kts | 64° |
| 2026-05-01 15:09 | 55.84289 | 88.55564 | 35073 ft | 491 kts | 64° |
| 2026-05-01 15:10 | 55.86777 | 88.66872 | 35077 ft | 490 kts | 64° |
| 2026-05-01 15:10 | 55.90487 | 88.83847 | 35079 ft | 490 kts | 64° |
| 2026-05-01 15:11 | 55.94175 | 89.00853 | 35081 ft | 490 kts | 64° |
| 2026-05-01 15:12 | 55.96616 | 89.12213 | 35075 ft | 490 kts | 64° |
| 2026-05-01 15:12 | 56.00240 | 89.29296 | 35083 ft | 490 kts | 64° |
| 2026-05-01 15:14 | 56.06235 | 89.57848 | 35076 ft | 491 kts | 64° |
| 2026-05-01 15:14 | 56.09802 | 89.75026 | 35087 ft | 491 kts | 64° |
| 2026-05-01 15:15 | 56.14524 | 89.97996 | 35093 ft | 491 kts | 64° |
| 2026-05-01 15:16 | 56.19202 | 90.21012 | 35086 ft | 491 kts | 65° |
| 2026-05-01 15:18 | 56.24923 | 90.49558 | 34892 ft | 463 kts | 64° |
| 2026-05-01 15:18 | 56.25995 | 90.54956 | 34687 ft | 452 kts | 64° |
| 2026-05-01 15:19 | 56.27604 | 90.71378 | 32938 ft | 446 kts | 83° |
| 2026-05-01 15:19 | 56.27763 | 90.82473 | 31414 ft | 441 kts | 84° |
| 2026-05-01 15:19 | 56.27856 | 90.87971 | 30679 ft | 438 kts | 84° |
| 2026-05-01 15:20 | 56.28081 | 90.98856 | 29094 ft | 431 kts | 83° |
| 2026-05-01 15:20 | 56.28199 | 91.04220 | 28291 ft | 427 kts | 84° |
| 2026-05-01 15:20 | 56.28311 | 91.09544 | 27486 ft | 424 kts | 84° |
| 2026-05-01 15:21 | 56.28359 | 91.14823 | 26729 ft | 422 kts | 90° |
| 2026-05-01 15:21 | 56.28037 | 91.20060 | 25991 ft | 420 kts | 96° |
| 2026-05-01 15:21 | 56.27578 | 91.25227 | 25264 ft | 416 kts | 97° |
| 2026-05-01 15:21 | 56.27095 | 91.30334 | 24567 ft | 412 kts | 97° |
| 2026-05-01 15:22 | 56.26205 | 91.40226 | 23386 ft | 393 kts | 96° |
| 2026-05-01 15:22 | 56.25784 | 91.45235 | 21720 ft | 413 kts | 96° |
| 2026-05-01 15:22 | 56.25354 | 91.50416 | 20228 ft | 424 kts | 96° |
| 2026-05-01 15:23 | 56.24915 | 91.55703 | 18797 ft | 431 kts | 96° |
| 2026-05-01 15:23 | 56.24466 | 91.61060 | 17472 ft | 433 kts | 96° |
| 2026-05-01 15:23 | 56.24028 | 91.66239 | 17217 ft | 405 kts | 96° |
| 2026-05-01 15:23 | 56.23980 | 91.71087 | 17084 ft | 372 kts | 78° |
| 2026-05-01 15:24 | 56.24461 | 91.75483 | 17078 ft | 349 kts | 73° |
| 2026-05-01 15:24 | 56.24993 | 91.79704 | 17075 ft | 344 kts | 73° |
| 2026-05-01 15:24 | 56.25522 | 91.83872 | 17076 ft | 340 kts | 73° |
| 2026-05-01 15:24 | 56.26025 | 91.88013 | 17079 ft | 337 kts | 73° |
| 2026-05-01 15:25 | 56.26504 | 91.92131 | 17081 ft | 335 kts | 74° |
| 2026-05-01 15:25 | 56.26967 | 91.96220 | 17087 ft | 332 kts | 74° |
| 2026-05-01 15:25 | 56.27417 | 92.00284 | 17085 ft | 330 kts | 74° |
| 2026-05-01 15:25 | 56.27853 | 92.04276 | 17076 ft | 326 kts | 75° |
| 2026-05-01 15:26 | 56.28270 | 92.08200 | 17028 ft | 313 kts | 75° |
| 2026-05-01 15:26 | 56.28673 | 92.11968 | 16851 ft | 302 kts | 74° |
| 2026-05-01 15:26 | 56.29071 | 92.15640 | 16466 ft | 297 kts | 74° |